Latest Coastal Weather Observations for Maria Island

IDT60701

Issued at 2:21 pm EST Sunday 2 August 2015 (issued every 10 minutes, with the page automatically refreshed every 10 minutes)

About coastal observations | Map of coastal stations | Coastal observations for TAS | Marine services | Other Formats
Station Details ID: 092124 Name: MARIA ISLAND (POINT LESUEUR) Lat: -42.66 Lon: 148.02 Height: 28.0 m
Data from the previous 72 hours. | See also: Recent months at Maria Island
Date/Time
EST
Temp

°C
Wind Pressure Rain
since 9am
mm
Weather Cloud Vis
km
Sea
Height
m
Swell
Dir
 
Speed
knots
Gust
knots
hPa Trend Height
m
Period
s
Dir
02/02:10pm 7.0 W 29 40 993.6 - 2.8 - - - - - - -
02/02:00pm 7.8 WNW 24 33 993.3 - 2.8 - - - - - - -
02/01:58pm 8.1 WNW 24 35 993.4 - 2.6 - - - - - - -
02/01:37pm 10.1 NW 30 41 992.2 - 0.0 - - - - - - -
02/01:30pm 10.8 NW 33 42 991.8 - 0.0 - - - - - - -
02/01:08pm 12.7 NW 35 45 991.1 - 0.0 - - - - - - -
02/01:00pm 12.6 NW 35 44 991.0 - 0.0 - - - - - - -
02/12:30pm 12.2 NW 35 48 991.5 - 0.0 - - - - - - -
02/12:00pm 12.1 NW 35 46 991.9 - 0.0 - - - - - - -
02/11:32am 12.1 NW 30 41 993.5 - 0.0 - - - - - - -
02/11:30am 12.0 NW 30 41 993.6 - 0.0 - - - - - - -
02/11:24am 12.2 NW 29 41 993.2 - 0.0 - - - - - - -
02/11:01am 11.9 NNW 21 34 994.6 - 0.0 - - - - - - -
02/11:00am 12.0 NNW 21 29 994.9 - 0.0 - - - - - - -
02/10:40am 11.7 NNW 23 34 995.3 - 0.0 - - - - - - -
02/10:30am 11.5 NNW 22 30 995.5 - 0.0 - - - - - - -
02/10:00am 11.0 N 19 23 996.6 - 0.0 - - - - - - -
02/09:30am 10.4 N 21 28 997.0 - 0.0 - - - - - - -
02/09:00am 9.9 N 21 30 997.8 - 0.0 - - - - - - -
02/08:30am 9.2 NNW 20 24 998.6 - 0.0 - - - - - - -
02/08:00am 8.5 NNW 18 24 998.9 - 0.0 - - - - - - -
02/07:30am 8.3 NNW 16 21 999.3 - 0.0 - - - - - - -
02/07:00am 8.1 NNW 12 17 1000.0 - 0.0 - - - - - - -
02/06:30am 7.7 NNW 11 19 1000.2 - 0.0 - - - - - - -
02/06:00am 7.8 N 14 19 1000.7 - 0.0 - - - - - - -
02/05:30am 7.5 N 17 23 1000.8 - 0.0 - - - - - - -
02/05:00am 7.3 N 16 21 1001.4 - 0.0 - - - - - - -
02/04:30am 7.4 N 17 21 1002.0 - 0.0 - - - - - - -
02/04:00am 7.1 NNW 14 18 1002.6 - 0.0 - - - - - - -
02/03:30am 7.0 N 17 20 1002.8 - 0.0 - - - - - - -
02/03:00am 6.9 N 19 21 1003.3 - 0.0 - - - - - - -
02/02:30am 7.0 N 20 23 1003.8 - 0.0 - - - - - - -
02/02:00am 6.9 N 21 23 1003.9 - 0.0 - - - - - - -
02/01:30am 6.9 N 22 26 1004.3 - 0.0 - - - - - - -
02/01:00am 7.1 N 21 24 1004.5 - 0.0 - - - - - - -
02/12:30am 7.1 N 23 25 1004.7 - 0.0 - - - - - - -
02/12:00am 7.2 N 20 23 1005.2 - 0.0 - - - - - - -
 
Date/Time
EST
Temp

°C
Wind Pressure Rain
since 9am
mm
Weather Cloud Vis
km
Sea
Height
m
Swell
Dir
 
Speed
knots
Gust
knots
hPa Trend Height
m
Period
s
Dir
01/11:30pm 7.4 N 21 25 1005.6 - 0.0 - - - - - - -
01/11:00pm 7.5 NNW 19 23 1005.8 - 0.0 - - - - - - -
01/10:30pm 7.8 NNW 19 22 1005.9 - 0.0 - - - - - - -
01/10:00pm 7.5 NW 14 18 1006.3 - 0.0 - - - - - - -
01/09:30pm 7.8 NNW 23 27 1006.0 - 0.0 - - - - - - -
01/09:00pm 7.8 NNW 18 23 1006.2 - 0.0 - - - - - - -
01/08:30pm 8.0 NW 21 30 1006.4 - 0.0 - - - - - - -
01/08:00pm 8.3 NW 19 24 1006.6 - 0.0 - - - - - - -
01/07:30pm 8.3 NW 22 29 1006.4 - 0.0 - - - - - - -
01/07:00pm 8.1 NNW 18 25 1006.6 - 0.0 - - - - - - -
01/06:30pm 8.2 NNW 20 25 1006.0 - 0.0 - - - - - - -
01/06:00pm 8.2 NW 23 27 1005.7 - 0.0 - - - - - - -
01/05:30pm 8.7 NW 15 19 1005.6 - 0.0 - - - - - - -
01/05:00pm 8.7 NW 11 18 1005.4 - 0.0 - - - - - - -
01/04:30pm 9.1 NW 8 12 1005.1 - 0.0 - - - - - - -
01/04:00pm 9.5 WNW 13 18 1004.9 - 0.0 - - - - - - -
01/03:30pm 9.4 WNW 17 22 1004.6 - 0.0 - - - - - - -
01/03:00pm 9.7 WNW 18 26 1003.7 - 0.0 - - - - - - -
01/02:30pm 9.5 W 18 23 1003.7 - 0.0 - - - - - - -
01/02:00pm 9.3 W 25 35 1002.6 - 0.0 - - - - - - -
01/01:58pm 9.5 W 23 35 1002.6 - 0.0 - - - - - - -
01/01:30pm 9.5 WNW 19 27 1002.8 - 0.0 - - - - - - -
01/01:15pm 9.7 W 22 32 1002.9 - 0.0 - - - - - - -
01/01:00pm 9.3 W 24 32 1002.7 - 0.0 - - - - - - -
01/12:30pm 9.6 W 22 30 1002.3 - 0.0 - - - - - - -
01/12:00pm 9.1 WNW 22 28 1002.3 - 0.0 - - - - - - -
01/11:30am 9.1 WNW 22 29 1002.4 - 0.0 - - - - - - -
01/11:21am 9.1 WNW 23 29 1002.5 - 0.0 - - - - - - -
01/11:04am 8.8 WSW 17 28 1002.7 - 0.0 - - - - - - -
01/11:00am 8.7 W 16 22 1002.6 - 0.0 - - - - - - -
01/10:38am 8.7 W 18 31 1002.3 - 0.0 - - - - - - -
01/10:30am 8.4 W 17 25 1002.2 - 0.0 - - - - - - -
01/10:00am 8.1 W 19 27 1001.7 - 0.0 - - - - - - -
01/09:30am 6.4 WNW 17 26 1000.9 - 0.0 - - - - - - -
01/09:20am 6.6 W 28 37 1000.6 - 0.0 - - - - - - -
01/09:14am 6.9 W 23 37 1000.2 - 0.0 - - - - - - -
01/09:10am 7.5 WNW 20 31 1000.5 - 0.0 - - - - - - -
01/09:00am 8.2 W 22 27 1000.3 - 0.2 - - - - - - -
01/08:48am 8.2 W 20 30 1000.0 - 0.2 - - - - - - -
01/08:30am 8.7 W 16 19 999.7 - 0.2 - - - - - - -
01/08:00am 8.4 WNW 16 19 998.5 - 0.2 - - - - - - -
01/07:30am 8.5 WNW 16 19 998.3 - 0.2 - - - - - - -
01/07:00am 8.6 WNW 17 22 997.9 - 0.2 - - - - - - -
01/06:30am 9.4 WNW 23 34 997.2 - 0.0 - - - - - - -
01/06:29am 9.5 WNW 24 34 997.1 - 0.0 - - - - - - -
01/06:01am 10.3 NW 32 42 995.6 - 0.0 - - - - - - -
01/06:00am 10.4 NW 33 43 995.6 - 0.0 - - - - - - -
01/05:37am 10.3 NW 29 42 995.2 - 0.0 - - - - - - -
01/05:30am 10.4 NW 29 38 995.3 - 0.0 - - - - - - -
01/05:01am 10.2 NNW 26 36 996.1 - 0.0 - - - - - - -
01/05:00am 10.2 NNW 27 36 996.0 - 0.0 - - - - - - -
01/04:36am 10.2 N 29 43 995.5 - 0.0 - - - - - - -
01/04:30am 10.2 N 29 36 995.6 - 0.0 - - - - - - -
01/04:01am 10.3 N 30 42 995.9 - 0.0 - - - - - - -
01/04:00am 10.3 N 30 38 996.1 - 0.0 - - - - - - -
01/03:42am 10.2 N 29 42 996.6 - 0.0 - - - - - - -
01/03:30am 10.3 N 32 39 996.9 - 0.0 - - - - - - -
01/03:09am 10.2 N 34 46 996.6 - 0.0 - - - - - - -
01/03:00am 10.1 N 33 43 997.7 - 0.0 - - - - - - -
01/02:59am 10.1 N 32 43 997.6 - 0.0 - - - - - - -
01/02:30am 10.0 NNW 31 38 999.7 - 0.0 - - - - - - -
01/02:19am 10.0 N 29 39 999.7 - 0.0 - - - - - - -
01/02:00am 10.1 N 31 37 999.6 - 0.0 - - - - - - -
01/01:30am 10.1 N 36 49 999.7 - 0.0 - - - - - - -
01/01:00am 9.8 N 32 43 1000.6 - 0.0 - - - - - - -
01/12:53am 9.9 N 32 43 1000.6 - 0.0 - - - - - - -
01/12:30am 9.9 N 27 34 1002.0 - 0.0 - - - - - - -
01/12:00am 10.0 NNW 27 37 1003.4 - 0.0 - - - - - - -
 
Date/Time
EST
Temp

°C
Wind Pressure Rain
since 9am
mm
Weather Cloud Vis
km
Sea
Height
m
Swell
Dir
 
Speed
knots
Gust
knots
hPa Trend Height
m
Period
s
Dir
31/11:53pm 10.0 N 26 37 1003.5 - 0.0 - - - - - - -
31/11:30pm 10.0 NNW 24 28 1003.4 - 0.0 - - - - - - -
31/11:00pm 9.9 N 22 30 1004.5 - 0.0 - - - - - - -
31/10:30pm 9.5 N 18 22 1005.2 - 0.0 - - - - - - -
31/10:00pm 9.3 N 19 24 1006.4 - 0.0 - - - - - - -
31/09:30pm 9.2 N 21 26 1006.8 - 0.0 - - - - - - -
31/09:00pm 9.1 N 25 30 1007.4 - 0.0 - - - - - - -
31/08:30pm 9.0 N 23 30 1008.0 - 0.0 - - - - - - -
31/08:00pm 9.1 N 25 30 1008.1 - 0.0 - - - - - - -
31/07:30pm 9.0 N 22 27 1008.5 - 0.0 - - - - - - -
31/07:00pm 9.0 N 22 27 1008.8 - 0.0 - - - - - - -
31/06:30pm 9.3 N 24 29 1008.9 - 0.0 - - - - - - -
31/06:00pm 9.5 N 23 26 1008.5 - 0.0 - - - - - - -
31/05:30pm 9.8 N 22 27 1008.9 - 0.0 - - - - - - -
31/05:00pm 10.0 N 22 26 1009.0 - 0.0 - - - - - - -
31/04:30pm 10.4 N 18 21 1009.3 - 0.0 - - - - - - -
31/04:00pm 10.7 N 17 21 1009.9 - 0.0 - - - - - - -
31/03:30pm 11.0 N 18 22 1010.0 - 0.0 - - - - - - -
31/03:00pm 11.3 N 13 15 1010.7 - 0.0 - - - - - - -
31/02:30pm 11.4 NNW 15 19 1010.9 - 0.0 - - - - - - -
31/02:00pm 10.8 NNW 15 17 1011.5 - 0.0 - - - - - - -
31/01:30pm 10.1 N 15 17 1011.8 - 0.0 - - - - - - -
31/01:00pm 9.9 N 13 16 1012.3 - 0.0 - - - - - - -
31/12:30pm 9.4 NNW 15 18 1012.7 - 0.0 - - - - - - -
31/12:00pm 9.7 NNW 15 20 1013.3 - 0.0 - - - - - - -
31/11:30am 9.1 N 12 16 1013.4 - 0.0 - - - - - - -
31/11:00am 9.5 NNW 10 15 1013.8 - 0.0 - - - - - - -
31/10:30am 9.2 NNW 10 12 1014.1 - 0.0 - - - - - - -
31/10:00am 8.5 NNW 11 14 1013.9 - 0.0 - - - - - - -
31/09:30am 7.8 NNW 12 15 1013.9 - 0.0 - - - - - - -
31/09:00am 7.3 NW 11 14 1013.8 - 0.0 - - - - - - -
31/08:30am 7.0 NW 13 16 1013.4 - 0.0 - - - - - - -
31/08:00am 6.5 NNW 11 13 1013.1 - 0.0 - - - - - - -
31/07:30am 6.4 NW 11 13 1012.9 - 0.0 - - - - - - -
31/07:00am 6.3 NW 12 16 1012.4 - 0.0 - - - - - - -
31/06:30am 6.7 W 9 12 1012.1 - 0.0 - - - - - - -
31/06:00am 6.4 WNW 10 12 1011.7 - 0.0 - - - - - - -
31/05:30am 6.6 W 11 15 1011.1 - 0.0 - - - - - - -
31/05:00am 6.8 W 14 18 1011.0 - 0.0 - - - - - - -
31/04:30am 6.9 W 13 16 1010.6 - 0.0 - - - - - - -
31/04:00am 7.1 W 16 23 1010.2 - 0.0 - - - - - - -
31/03:30am 7.1 W 17 24 1009.6 - 0.0 - - - - - - -
31/03:10am 7.1 W 15 25 1009.4 - 0.0 - - - - - - -
31/03:00am 7.2 W 15 18 1009.2 - 0.0 - - - - - - -
31/02:30am 6.8 WNW 12 15 1009.1 - 0.0 - - - - - - -
31/02:00am 7.3 W 15 19 1008.7 - 0.0 - - - - - - -
31/01:30am 7.3 WNW 11 15 1008.1 - 0.0 - - - - - - -
31/01:00am 7.2 W 8 11 1007.5 - 0.0 - - - - - - -
31/12:30am 8.2 WSW 15 19 1006.4 - 0.0 - - - - - - -
31/12:00am 8.2 SW 15 21 1006.5 - 0.0 - - - - - - -
 
Date/Time
EST
Temp

°C
Wind Pressure Rain
since 9am
mm
Weather Cloud Vis
km
Sea
Height
m
Swell
Dir
 
Speed
knots
Gust
knots
hPa Trend Height
m
Period
s
Dir
30/11:30pm 8.6 SW 22 27 1005.4 - 0.0 - - - - - - -
30/11:00pm 8.8 WSW 18 23 1005.1 - 0.0 - - - - - - -
30/10:30pm 9.6 SW 19 25 1004.4 - 0.0 - - - - - - -
30/10:00pm 10.1 WSW 17 23 1003.3 - 0.0 - - - - - - -
30/09:30pm 10.7 W 12 17 1002.9 - 0.0 - - - - - - -
30/09:00pm 10.7 WNW 15 21 1002.2 - 0.0 - - - - - - -
30/08:30pm 10.9 NW 15 21 1001.5 - 0.0 - - - - - - -
30/08:00pm 11.0 NNW 23 31 1000.5 - 0.0 - - - - - - -
30/07:30pm 10.8 NNW 30 36 999.2 - 0.0 - - - - - - -
30/07:00pm 10.5 N 35 42 997.5 - 0.0 - - - - - - -
30/06:30pm 10.5 NNW 35 42 998.3 - 0.0 - - - - - - -
30/06:00pm 10.5 NNW 34 41 998.5 - 0.0 - - - - - - -
30/05:30pm 10.7 NNW 37 46 998.5 - 0.0 - - - - - - -
30/05:00pm 10.9 NNW 34 45 999.2 - 0.0 - - - - - - -
30/04:36pm 11.3 NNW 31 41 999.6 - 0.0 - - - - - - -
30/04:30pm 11.3 NNW 31 39 1000.2 - 0.0 - - - - - - -
30/04:00pm 12.0 NNW 28 35 1000.8 - 0.0 - - - - - - -
30/03:30pm 12.2 NNW 28 35 1001.4 - 0.0 - - - - - - -
30/03:28pm 12.2 NNW 29 39 1001.3 - 0.0 - - - - - - -
30/03:00pm 12.2 NNW 31 38 1001.4 - 0.0 - - - - - - -
30/02:38pm 12.2 NNW 32 42 1001.8 - 0.0 - - - - - - -
30/02:30pm 12.2 NNW 31 40 1002.4 - 0.0 - - - - - - -

Other Formats:

Comma delimited format used in spreadsheet applications
http://www.bom.gov.au/fwo/IDT60701/IDT60701.95988.axf

JavaScript Object Notation format (JSON) in row-major order
http://www.bom.gov.au/fwo/IDT60701/IDT60701.95988.json